createdAt,value
2018-09-25T00:01:33.708Z,7.00
2018-09-25T00:04:07.597Z,7.00
2018-09-25T00:06:41.659Z,7.00
2018-09-25T00:09:15.931Z,7.00
2018-09-25T00:11:56.974Z,7.00
2018-09-25T00:14:30.858Z,7.00
2018-09-25T00:17:04.859Z,6.90
2018-09-25T00:19:38.943Z,6.80
2018-09-25T00:22:12.772Z,6.80
2018-09-25T00:24:46.852Z,6.70
2018-09-25T00:27:20.811Z,6.60
2018-09-25T00:29:54.876Z,6.60
2018-09-25T00:32:28.692Z,6.60
2018-09-25T00:35:02.558Z,6.60
2018-09-25T00:37:36.362Z,6.60
2018-09-25T00:40:10.880Z,6.60
2018-09-25T00:42:45.073Z,6.50
2018-09-25T00:45:19.481Z,6.50
2018-09-25T00:47:53.378Z,6.50
2018-09-25T00:50:27.320Z,6.50
2018-09-25T00:53:01.239Z,6.50
2018-09-25T00:55:35.248Z,6.50
2018-09-25T00:58:09.266Z,6.50
2018-09-25T01:00:43.231Z,6.50
2018-09-25T01:03:19.559Z,6.50
2018-09-25T01:09:01.811Z,6.60
2018-09-25T01:15:07.603Z,6.60
2018-09-25T01:17:41.436Z,6.60
2018-09-25T01:20:15.445Z,6.60
2018-09-25T01:22:49.393Z,6.60
2018-09-25T01:25:23.368Z,6.70
2018-09-25T01:27:57.286Z,6.70
2018-09-25T01:30:31.234Z,6.70
2018-09-25T01:33:05.083Z,6.80
2018-09-25T01:35:38.950Z,6.80
2018-09-25T01:38:12.882Z,6.80
2018-09-25T01:40:46.833Z,6.70
2018-09-25T01:43:20.717Z,6.70
2018-09-25T01:45:54.693Z,6.70
2018-09-25T01:48:28.615Z,6.70
2018-09-25T01:51:02.600Z,6.80
2018-09-25T01:53:36.499Z,6.80
2018-09-25T01:56:10.396Z,6.80
2018-09-25T01:58:44.387Z,6.80
2018-09-25T02:01:18.327Z,6.80
2018-09-25T02:03:52.280Z,6.80
2018-09-25T02:06:26.120Z,6.90
2018-09-25T02:09:00.019Z,6.90
2018-09-25T02:11:33.923Z,7.00
2018-09-25T02:14:07.913Z,7.00
2018-09-25T02:16:41.900Z,7.00
2018-09-25T02:19:15.945Z,6.90
2018-09-25T02:21:50.039Z,6.90
2018-09-25T02:24:23.979Z,6.90
2018-09-25T02:26:57.885Z,6.90
2018-09-25T02:29:32.035Z,6.90
2018-09-25T02:32:05.911Z,6.90
2018-09-25T02:34:39.760Z,7.00
2018-09-25T02:37:13.612Z,7.00
2018-09-25T02:39:47.538Z,7.00
2018-09-25T02:42:21.467Z,7.10
2018-09-25T02:44:55.271Z,7.10
2018-09-25T02:47:29.166Z,7.10
2018-09-25T02:50:03.125Z,7.00
2018-09-25T02:52:36.929Z,7.00
2018-09-25T02:55:22.091Z,7.00
2018-09-25T02:57:55.881Z,7.00
2018-09-25T03:00:29.874Z,7.00
2018-09-25T03:03:03.746Z,7.00
2018-09-25T03:05:37.754Z,7.00
2018-09-25T03:08:11.665Z,7.00
2018-09-25T03:10:45.611Z,7.00
2018-09-25T03:13:19.375Z,6.90
2018-09-25T03:15:53.452Z,7.00
2018-09-25T03:18:27.523Z,7.00
2018-09-25T03:21:01.532Z,6.90
2018-09-25T03:23:35.610Z,7.00
2018-09-25T03:26:09.736Z,7.00
2018-09-25T03:28:43.720Z,7.00
2018-09-25T03:31:17.849Z,7.00
2018-09-25T03:33:51.752Z,7.00
2018-09-25T03:36:25.725Z,7.00
2018-09-25T03:38:59.623Z,7.00
2018-09-25T03:41:33.617Z,6.90
2018-09-25T03:44:07.703Z,6.90
2018-09-25T03:46:41.491Z,6.90
2018-09-25T03:49:15.479Z,6.90
2018-09-25T03:51:49.426Z,6.90
2018-09-25T03:54:23.324Z,6.80
2018-09-25T03:56:57.130Z,6.90
2018-09-25T03:59:30.869Z,6.90
2018-09-25T04:02:04.666Z,6.90
2018-09-25T04:04:38.582Z,6.90
2018-09-25T04:07:12.776Z,6.80
2018-09-25T04:09:46.498Z,6.80
2018-09-25T04:12:20.409Z,6.80
2018-09-25T04:14:54.456Z,6.80
2018-09-25T04:17:28.611Z,6.70
2018-09-25T04:20:02.825Z,6.80
2018-09-25T04:22:36.840Z,6.80
2018-09-25T04:25:11.165Z,6.80
2018-09-25T04:27:45.150Z,6.80
2018-09-25T04:30:19.196Z,6.80
2018-09-25T04:32:53.192Z,6.80
2018-09-25T04:35:27.202Z,6.80
2018-09-25T04:38:01.198Z,6.80
2018-09-25T04:40:35.003Z,6.80
2018-09-25T04:43:09.014Z,6.90
2018-09-25T04:45:42.845Z,6.90
2018-09-25T04:48:16.844Z,6.80
2018-09-25T04:50:50.722Z,6.80
2018-09-25T04:53:24.564Z,6.90
2018-09-25T04:55:58.371Z,6.90
2018-09-25T04:58:32.231Z,6.90
2018-09-25T05:01:07.466Z,6.90
2018-09-25T05:03:41.741Z,7.00
2018-09-25T05:06:15.743Z,6.90
2018-09-25T05:08:49.650Z,6.90
2018-09-25T05:11:23.450Z,6.80
2018-09-25T05:13:57.362Z,6.90
2018-09-25T05:16:31.403Z,6.90
2018-09-25T05:19:05.300Z,6.90
2018-09-25T05:21:39.197Z,6.80
2018-09-25T05:24:13.201Z,6.80
2018-09-25T05:26:47.140Z,6.80
2018-09-25T05:29:21.074Z,6.80
2018-09-25T05:31:54.995Z,6.90
2018-09-25T05:34:28.954Z,6.90
2018-09-25T05:37:03.188Z,7.00
2018-09-25T05:39:37.044Z,7.00
2018-09-25T05:42:10.834Z,7.10
2018-09-25T05:44:44.893Z,7.10
2018-09-25T05:47:18.777Z,7.20
2018-09-25T05:49:52.829Z,7.20
2018-09-25T05:52:26.669Z,7.30
2018-09-25T05:55:00.510Z,7.40
2018-09-25T05:57:34.714Z,7.50
2018-09-25T06:00:08.594Z,7.60
2018-09-25T06:02:42.466Z,7.80
2018-09-25T06:05:16.438Z,7.80
2018-09-25T06:07:50.379Z,7.70
2018-09-25T06:10:24.126Z,7.60
2018-09-25T06:12:58.056Z,7.60
2018-09-25T06:15:31.871Z,7.60
2018-09-25T06:18:05.705Z,7.60
2018-09-25T06:20:39.762Z,7.70
2018-09-25T06:23:13.612Z,7.70
2018-09-25T06:25:47.656Z,7.70
2018-09-25T06:28:21.562Z,9.00
2018-09-25T06:30:55.402Z,9.90
2018-09-25T06:33:29.540Z,9.20
2018-09-25T06:36:03.393Z,8.90
2018-09-25T06:38:37.319Z,8.90
2018-09-25T06:41:11.225Z,13.40
2018-09-25T06:43:45.171Z,12.30
2018-09-25T06:46:19.330Z,12.30
2018-09-25T06:48:53.124Z,14.10
2018-09-25T06:51:27.055Z,13.40
2018-09-25T06:54:00.970Z,12.80
2018-09-25T06:56:34.971Z,12.30
2018-09-25T06:59:09.006Z,13.80
2018-09-25T07:01:42.817Z,13.80
2018-09-25T07:04:16.962Z,13.50
2018-09-25T07:06:50.910Z,14.10
2018-09-25T07:09:24.849Z,13.60
2018-09-25T07:11:58.731Z,12.30
2018-09-25T07:14:32.557Z,11.70
2018-09-25T07:17:06.376Z,11.10
2018-09-25T07:19:40.438Z,11.10
2018-09-25T07:22:14.461Z,10.80
2018-09-25T07:24:48.504Z,10.50
2018-09-25T07:27:22.459Z,10.30
2018-09-25T07:29:56.538Z,10.30
2018-09-25T07:32:30.630Z,10.20
2018-09-25T07:35:04.794Z,10.00
2018-09-25T07:37:38.758Z,9.80
2018-09-25T07:40:13.113Z,10.00
2018-09-25T07:42:47.023Z,10.20
2018-09-25T07:45:21.271Z,10.60
2018-09-25T07:47:55.163Z,11.50
2018-09-25T07:50:29.122Z,12.20
2018-09-25T07:53:02.980Z,13.00
2018-09-25T07:55:37.023Z,13.30
2018-09-25T07:58:10.915Z,13.70
2018-09-25T08:00:44.887Z,13.90
2018-09-25T08:03:18.672Z,13.80
2018-09-25T08:05:52.493Z,14.10
2018-09-25T08:08:26.287Z,14.50
2018-09-25T08:11:00.226Z,14.60
2018-09-25T08:13:34.230Z,14.80
2018-09-25T08:16:08.126Z,14.90
2018-09-25T08:18:41.963Z,14.60
2018-09-25T08:21:15.846Z,15.20
2018-09-25T08:23:49.846Z,15.50
2018-09-25T08:26:23.651Z,15.40
2018-09-25T08:28:57.557Z,15.50
2018-09-25T08:31:31.260Z,15.00
2018-09-25T08:34:05.115Z,14.80
2018-09-25T08:36:39.026Z,14.70
2018-09-25T08:39:14.964Z,14.40
2018-09-25T08:41:49.054Z,14.20
2018-09-25T08:44:22.944Z,13.60
2018-09-25T08:46:56.914Z,13.40
2018-09-25T08:49:30.883Z,13.10
2018-09-25T08:52:04.869Z,13.20
2018-09-25T08:54:38.842Z,13.40
2018-09-25T08:57:12.910Z,13.40
2018-09-25T08:59:46.720Z,13.50
2018-09-25T09:02:20.629Z,13.60
2018-09-25T09:04:54.489Z,13.70
2018-09-25T09:07:28.224Z,13.70
2018-09-25T09:10:03.209Z,13.60
2018-09-25T09:12:37.316Z,13.20
2018-09-25T09:15:11.209Z,13.10
2018-09-25T09:17:45.934Z,12.90
2018-09-25T09:20:19.841Z,12.80
2018-09-25T09:22:53.839Z,12.70
2018-09-25T09:25:27.772Z,12.60
2018-09-25T09:28:01.850Z,12.60
2018-09-25T09:30:35.611Z,12.60
2018-09-25T09:33:09.570Z,12.70
2018-09-25T09:35:43.521Z,12.50
2018-09-25T09:38:17.506Z,12.30
2018-09-25T09:40:51.348Z,12.30
2018-09-25T09:43:25.107Z,12.30
2018-09-25T09:45:59.042Z,12.50
2018-09-25T09:48:32.991Z,12.40
2018-09-25T09:51:06.952Z,12.40
2018-09-25T09:53:40.845Z,12.30
2018-09-25T09:56:14.752Z,12.20
2018-09-25T09:58:48.648Z,12.20
2018-09-25T10:01:22.454Z,12.20
2018-09-25T10:03:56.282Z,12.10
2018-09-25T10:06:30.228Z,12.10
2018-09-25T10:09:03.928Z,12.00
2018-09-25T10:11:37.824Z,12.00
2018-09-25T10:14:11.759Z,12.10
2018-09-25T10:16:45.619Z,12.20
2018-09-25T10:19:19.385Z,12.20
2018-09-25T10:21:53.419Z,12.30
2018-09-25T10:24:27.326Z,12.60
2018-09-25T10:27:01.238Z,12.60
2018-09-25T10:29:35.063Z,12.60
2018-09-25T10:32:09.058Z,12.50
2018-09-25T10:34:43.138Z,12.70
2018-09-25T10:37:17.147Z,12.40
2018-09-25T10:39:51.022Z,12.40
2018-09-25T10:42:25.072Z,12.30
2018-09-25T10:44:59.105Z,12.30
2018-09-25T10:47:32.890Z,12.20
2018-09-25T10:50:06.873Z,11.90
2018-09-25T10:52:40.587Z,11.60
2018-09-25T10:55:14.548Z,11.70
2018-09-25T10:57:48.434Z,11.80
2018-09-25T11:00:22.253Z,11.70
2018-09-25T11:02:56.180Z,11.90
2018-09-25T11:05:31.081Z,12.00
2018-09-25T11:08:04.922Z,12.20
2018-09-25T11:10:38.797Z,12.30
2018-09-25T11:13:12.602Z,12.40
2018-09-25T11:15:46.529Z,12.50
2018-09-25T11:18:20.602Z,12.60
2018-09-25T11:20:54.525Z,12.60
2018-09-25T11:23:28.514Z,12.70
2018-09-25T11:26:02.276Z,12.50
2018-09-25T11:28:36.265Z,12.50
2018-09-25T11:31:10.003Z,12.40
2018-09-25T11:33:43.977Z,12.30
2018-09-25T11:36:17.915Z,12.30
2018-09-25T11:38:51.976Z,12.30
2018-09-25T11:41:26.092Z,12.20
2018-09-25T11:43:59.678Z,12.30
2018-09-25T11:46:33.696Z,12.70
2018-09-25T11:49:07.495Z,12.90
2018-09-25T11:51:41.493Z,12.90
2018-09-25T11:54:15.326Z,13.00
2018-09-25T11:56:49.347Z,13.20
2018-09-25T11:59:23.335Z,13.30
2018-09-25T12:01:57.032Z,13.10
2018-09-25T12:04:31.835Z,13.20
2018-09-25T12:07:05.620Z,13.20
2018-09-25T12:09:39.585Z,13.30
2018-09-25T12:12:13.645Z,13.40
2018-09-25T12:14:47.703Z,13.40
2018-09-25T12:17:21.671Z,13.70
2018-09-25T12:19:55.664Z,13.80
2018-09-25T12:22:29.507Z,13.70
2018-09-25T12:25:03.665Z,13.70
2018-09-25T12:27:37.931Z,13.70
2018-09-25T12:30:12.522Z,13.60
2018-09-25T12:32:46.468Z,13.50
2018-09-25T12:35:20.443Z,13.40
2018-09-25T12:37:54.477Z,13.30
2018-09-25T12:40:28.503Z,13.40
2018-09-25T12:43:02.658Z,13.20
2018-09-25T12:45:36.584Z,13.10
2018-09-25T12:48:10.491Z,13.10
2018-09-25T12:50:44.302Z,13.30
2018-09-25T12:53:18.147Z,13.40
2018-09-25T12:55:52.046Z,13.50
2018-09-25T12:58:25.932Z,13.70
2018-09-25T13:00:59.730Z,13.70
2018-09-25T13:03:33.540Z,13.80
2018-09-25T13:06:07.450Z,14.00
2018-09-25T13:08:41.231Z,14.00
2018-09-25T13:11:15.187Z,13.80
2018-09-25T13:13:49.077Z,13.80
2018-09-25T13:16:23.102Z,13.80
2018-09-25T13:18:57.247Z,13.90
2018-09-25T13:21:31.216Z,13.70
2018-09-25T13:24:05.418Z,13.60
2018-09-25T13:26:39.247Z,13.30
2018-09-25T13:29:13.131Z,13.30
2018-09-25T13:31:47.083Z,13.10
2018-09-25T13:34:21.003Z,13.20
2018-09-25T13:36:54.890Z,13.20
2018-09-25T13:39:28.860Z,13.30
2018-09-25T13:42:02.789Z,13.20
2018-09-25T13:44:36.738Z,13.20
2018-09-25T13:47:10.563Z,13.30
2018-09-25T13:49:44.370Z,13.40
2018-09-25T13:52:18.866Z,13.30
2018-09-25T13:54:52.682Z,13.20
2018-09-25T13:57:26.599Z,13.20
2018-09-25T14:00:00.518Z,13.00
2018-09-25T14:02:34.346Z,12.90
2018-09-25T14:05:08.375Z,12.80
2018-09-25T14:07:42.366Z,12.80
2018-09-25T14:10:16.605Z,12.90
2018-09-25T14:12:50.613Z,12.90
2018-09-25T14:15:24.426Z,12.90
2018-09-25T14:17:58.266Z,13.00
2018-09-25T14:20:32.136Z,13.00
2018-09-25T14:23:06.126Z,13.10
2018-09-25T14:25:39.811Z,13.10
2018-09-25T14:28:13.937Z,13.20
2018-09-25T14:30:47.827Z,13.30
2018-09-25T14:33:21.617Z,13.30
2018-09-25T14:35:55.493Z,13.20
2018-09-25T14:38:29.890Z,13.00
2018-09-25T14:41:03.799Z,13.00
2018-09-25T14:43:37.729Z,13.00
2018-09-25T14:46:11.883Z,13.00
2018-09-25T14:48:45.801Z,13.00
2018-09-25T14:51:19.505Z,13.10
2018-09-25T14:53:53.410Z,13.10
2018-09-25T14:56:27.270Z,13.30
2018-09-25T14:59:03.090Z,13.20
2018-09-25T15:01:36.955Z,13.30
2018-09-25T15:04:10.835Z,13.20
2018-09-25T15:06:44.721Z,13.20
2018-09-25T15:09:18.579Z,13.20
2018-09-25T15:11:52.403Z,13.20
2018-09-25T15:14:26.386Z,13.30
2018-09-25T15:17:00.239Z,13.30
2018-09-25T15:19:34.205Z,13.30
2018-09-25T15:22:08.357Z,13.10
2018-09-25T15:24:42.292Z,13.00
2018-09-25T15:27:16.082Z,12.90
2018-09-25T15:29:50.364Z,12.90
2018-09-25T15:32:24.331Z,12.70
2018-09-25T15:34:58.255Z,12.70
2018-09-25T15:37:32.281Z,12.70
2018-09-25T15:40:06.055Z,12.60
2018-09-25T15:42:39.890Z,12.20
2018-09-25T15:45:14.049Z,11.90
2018-09-25T15:47:48.037Z,11.60
2018-09-25T15:50:22.001Z,11.60
2018-09-25T15:52:56.009Z,11.60
2018-09-25T15:55:29.965Z,11.70
2018-09-25T15:58:04.015Z,11.70
2018-09-25T16:00:38.135Z,11.70
2018-09-25T16:03:12.062Z,11.70
2018-09-25T16:05:45.882Z,11.20
2018-09-25T16:08:19.878Z,11.00
2018-09-25T16:10:53.920Z,10.90
2018-09-25T16:13:28.073Z,10.80
2018-09-25T16:16:02.031Z,10.70
2018-09-25T16:18:35.762Z,10.50
2018-09-25T16:21:09.674Z,10.60
2018-09-25T16:23:43.534Z,10.50
2018-09-25T16:26:17.318Z,10.50
2018-09-25T16:28:51.339Z,10.50
2018-09-25T16:31:25.302Z,10.40
2018-09-25T16:33:59.221Z,10.40
2018-09-25T16:36:33.054Z,10.40
2018-09-25T16:39:07.070Z,10.30
2018-09-25T16:41:40.994Z,10.20
2018-09-25T16:44:14.964Z,10.20
2018-09-25T16:46:49.385Z,10.20
2018-09-25T16:49:23.371Z,10.20
2018-09-25T16:51:57.184Z,10.10
2018-09-25T16:54:31.051Z,10.10
2018-09-25T16:57:05.047Z,10.10
2018-09-25T16:59:38.769Z,10.00
2018-09-25T17:02:13.295Z,9.90
2018-09-25T17:04:47.039Z,9.80
2018-09-25T17:07:20.822Z,9.80
2018-09-25T17:09:54.687Z,9.70
2018-09-25T17:12:28.418Z,9.70
2018-09-25T17:15:02.456Z,9.60
2018-09-25T17:17:36.314Z,9.50
2018-09-25T17:20:10.885Z,9.40
2018-09-25T17:22:44.697Z,9.30
2018-09-25T17:25:18.478Z,9.20
2018-09-25T17:27:52.570Z,9.20
2018-09-25T17:30:26.640Z,9.10
2018-09-25T17:33:00.574Z,9.10
2018-09-25T17:35:34.451Z,9.10
2018-09-25T17:38:08.321Z,9.10
2018-09-25T17:40:42.385Z,9.10
2018-09-25T17:43:16.440Z,9.10
2018-09-25T17:45:50.283Z,9.00
2018-09-25T17:55:34.528Z,9.00
2018-09-25T17:58:08.652Z,8.90
2018-09-25T18:00:42.675Z,8.80
2018-09-25T18:03:16.642Z,8.70
2018-09-25T18:05:50.837Z,8.70
2018-09-25T18:08:25.014Z,8.60
2018-09-25T18:10:59.047Z,8.50
2018-09-25T18:13:32.877Z,8.40
2018-09-25T18:16:06.567Z,8.40
2018-09-25T18:18:40.384Z,8.30
2018-09-25T18:21:14.203Z,8.20
2018-09-25T18:23:48.616Z,8.20
2018-09-25T18:26:23.458Z,8.10
2018-09-25T18:28:57.889Z,8.10
2018-09-25T18:31:31.635Z,8.00
2018-09-25T18:34:05.829Z,8.00
2018-09-25T18:36:39.804Z,7.90
2018-09-25T18:39:13.816Z,7.80
2018-09-25T18:41:47.835Z,7.80
2018-09-25T18:44:21.847Z,7.80
2018-09-25T18:46:55.838Z,7.70
2018-09-25T18:49:29.985Z,7.70
2018-09-25T18:52:03.923Z,7.70
2018-09-25T18:54:38.051Z,7.60
2018-09-25T18:57:12.333Z,7.60
2018-09-25T18:59:47.550Z,7.60
2018-09-25T19:02:21.670Z,7.60
2018-09-25T19:04:55.586Z,7.50
2018-09-25T19:07:29.527Z,7.50
2018-09-25T19:10:03.392Z,7.50
2018-09-25T19:12:37.221Z,7.40
2018-09-25T19:15:11.323Z,7.40
2018-09-25T19:17:45.322Z,7.40
2018-09-25T19:20:19.388Z,7.30
2018-09-25T19:22:53.387Z,7.30
2018-09-25T19:25:27.365Z,7.20
2018-09-25T19:28:01.325Z,7.20
2018-09-25T19:30:35.179Z,7.20
2018-09-25T19:33:09.180Z,7.20
2018-09-25T19:35:43.152Z,7.10
2018-09-25T19:38:17.058Z,7.10
2018-09-25T19:40:50.956Z,7.10
2018-09-25T19:43:25.165Z,7.00
2018-09-25T19:45:59.318Z,7.00
2018-09-25T19:48:34.076Z,6.90
2018-09-25T19:51:08.364Z,6.90
2018-09-25T19:53:42.202Z,6.80
2018-09-25T19:56:16.617Z,6.80
2018-09-25T19:58:50.496Z,6.70
2018-09-25T20:01:24.459Z,6.70
2018-09-25T20:03:59.199Z,6.70
2018-09-25T20:06:33.209Z,6.70
2018-09-25T20:09:07.026Z,6.70
2018-09-25T20:11:41.020Z,6.70
2018-09-25T20:14:15.019Z,6.70
2018-09-25T20:16:49.611Z,6.70
2018-09-25T20:19:24.008Z,6.70
2018-09-25T20:21:57.947Z,6.70
2018-09-25T20:24:32.150Z,6.70
2018-09-25T20:27:06.178Z,6.70
2018-09-25T20:29:40.239Z,6.70
2018-09-25T20:32:14.956Z,6.70
2018-09-25T20:34:49.031Z,6.60
2018-09-25T20:37:23.056Z,6.70
2018-09-25T20:39:56.950Z,6.70
2018-09-25T20:42:30.844Z,6.60
2018-09-25T20:45:05.565Z,6.60
2018-09-25T20:47:40.063Z,6.60
2018-09-25T20:50:14.055Z,6.60
2018-09-25T20:52:48.039Z,6.50
2018-09-25T20:55:21.992Z,6.50
2018-09-25T20:57:55.776Z,6.50
2018-09-25T21:00:29.638Z,6.40
2018-09-25T21:03:03.647Z,6.40
2018-09-25T21:05:37.620Z,6.40
2018-09-25T21:08:11.882Z,6.40
2018-09-25T21:10:45.791Z,6.30
2018-09-25T21:13:19.885Z,6.40
2018-09-25T21:15:54.221Z,6.30
2018-09-25T21:18:28.141Z,6.30
2018-09-25T21:21:02.441Z,6.30
2018-09-25T21:23:36.265Z,6.30
2018-09-25T21:26:10.068Z,6.30
2018-09-25T21:28:44.165Z,6.30
2018-09-25T21:31:19.094Z,6.20
2018-09-25T21:33:53.002Z,6.20
2018-09-25T21:36:26.925Z,6.20
2018-09-25T21:39:00.964Z,6.20
2018-09-25T21:41:34.753Z,6.20
2018-09-25T21:44:08.711Z,6.10
2018-09-25T21:46:42.727Z,6.20
2018-09-25T21:49:16.738Z,6.10
2018-09-25T21:51:50.799Z,6.10
2018-09-25T21:54:24.924Z,6.10
2018-09-25T21:56:59.135Z,6.10
2018-09-25T21:59:33.065Z,6.10
2018-09-25T22:02:07.026Z,6.00
2018-09-25T22:04:40.848Z,6.00
2018-09-25T22:07:14.980Z,5.90
2018-09-25T22:09:48.834Z,5.90
2018-09-25T22:12:22.746Z,6.00
2018-09-25T22:14:56.818Z,5.90
2018-09-25T22:17:30.732Z,6.00
2018-09-25T22:20:04.713Z,6.00
2018-09-25T22:22:38.679Z,5.90
2018-09-25T22:25:12.610Z,5.90
2018-09-25T22:27:46.590Z,5.90
2018-09-25T22:30:20.530Z,5.90
2018-09-25T22:32:54.638Z,5.90
2018-09-25T22:35:28.481Z,5.90
2018-09-25T22:38:02.511Z,5.90
2018-09-25T22:40:36.454Z,5.90
2018-09-25T22:43:10.365Z,5.90
2018-09-25T22:45:44.268Z,5.90
2018-09-25T22:48:18.223Z,6.00
2018-09-25T22:50:52.179Z,6.00
2018-09-25T22:53:25.890Z,6.00
2018-09-25T22:55:59.904Z,6.00
2018-09-25T22:58:33.700Z,6.10
2018-09-25T23:01:07.770Z,6.00
2018-09-25T23:03:41.771Z,6.10
2018-09-25T23:06:15.729Z,6.10
2018-09-25T23:08:49.783Z,6.10
2018-09-25T23:11:24.207Z,6.00
2018-09-25T23:13:58.217Z,5.90
2018-09-25T23:16:32.228Z,5.90
2018-09-25T23:19:06.203Z,5.80
2018-09-25T23:21:40.033Z,5.80
2018-09-25T23:24:14.033Z,5.80
2018-09-25T23:26:47.782Z,5.80
2018-09-25T23:29:21.660Z,5.70
2018-09-25T23:31:55.662Z,5.70
2018-09-25T23:34:29.862Z,5.70
2018-09-25T23:37:03.757Z,5.70
2018-09-25T23:39:39.436Z,5.60
2018-09-25T23:42:17.261Z,5.60
2018-09-25T23:44:49.978Z,5.60
2018-09-25T23:47:43.338Z,5.60
2018-09-25T23:50:17.931Z,5.50
2018-09-25T23:52:51.782Z,5.40
2018-09-25T23:55:28.618Z,5.50
2018-09-25T23:58:19.917Z,5.40
